sensor_id;sensor_type;location;lat;lon;timestamp;pressure;altitude;pressure_sealevel;temperature
66180;BMP280;52986;44.028;20.466;2023-04-05T00:01:22;98012.94;;;1.85
66180;BMP280;52986;44.028;20.466;2023-04-05T00:03:50;98024.59;;;1.87
66180;BMP280;52986;44.028;20.466;2023-04-05T00:06:16;98019.72;;;1.89
66180;BMP280;52986;44.028;20.466;2023-04-05T00:08:51;98018.59;;;1.90
66180;BMP280;52986;44.028;20.466;2023-04-05T00:11:20;98017.84;;;1.94
66180;BMP280;52986;44.028;20.466;2023-04-05T00:13:46;98012.19;;;1.95
66180;BMP280;52986;44.028;20.466;2023-04-05T00:16:15;98011.06;;;1.96
66180;BMP280;52986;44.028;20.466;2023-04-05T00:18:41;98007.66;;;1.92
66180;BMP280;52986;44.028;20.466;2023-04-05T00:21:15;98012.19;;;1.91
66180;BMP280;52986;44.028;20.466;2023-04-05T00:23:40;98008.78;;;1.91
66180;BMP280;52986;44.028;20.466;2023-04-05T00:26:09;98018.59;;;1.94
66180;BMP280;52986;44.028;20.466;2023-04-05T00:28:35;98005.38;;;1.94
66180;BMP280;52986;44.028;20.466;2023-04-05T00:31:00;98005.41;;;1.87
66180;BMP280;52986;44.028;20.466;2023-04-05T00:33:25;98000.09;;;1.94
66180;BMP280;52986;44.028;20.466;2023-04-05T00:35:51;98010.31;;;1.99
66180;BMP280;52986;44.028;20.466;2023-04-05T00:38:16;98014.06;;;1.91
66180;BMP280;52986;44.028;20.466;2023-04-05T00:40:41;98006.50;;;1.93
66180;BMP280;52986;44.028;20.466;2023-04-05T00:43:07;98012.94;;;1.99
66180;BMP280;52986;44.028;20.466;2023-04-05T00:45:32;98014.78;;;1.88
66180;BMP280;52986;44.028;20.466;2023-04-05T00:47:57;98003.50;;;1.84
66180;BMP280;52986;44.028;20.466;2023-04-05T00:50:23;98021.25;;;1.87
66180;BMP280;52986;44.028;20.466;2023-04-05T00:52:49;98017.09;;;1.86
66180;BMP280;52986;44.028;20.466;2023-04-05T00:55:15;98022.38;;;1.89
66180;BMP280;52986;44.028;20.466;2023-04-05T00:57:42;98021.63;;;1.89
66180;BMP280;52986;44.028;20.466;2023-04-05T01:00:09;98014.78;;;1.88
66180;BMP280;52986;44.028;20.466;2023-04-05T01:02:43;98026.13;;;1.88
66180;BMP280;52986;44.028;20.466;2023-04-05T01:05:38;98022.75;;;1.91
66180;BMP280;52986;44.028;20.466;2023-04-05T01:11:08;98023.84;;;1.76
66180;BMP280;52986;44.028;20.466;2023-04-05T01:13:34;98021.16;;;1.69
66180;BMP280;52986;44.028;20.466;2023-04-05T01:15:59;98021.53;;;1.68
66180;BMP280;52986;44.028;20.466;2023-04-05T01:18:26;98029.06;;;1.66
66180;BMP280;52986;44.028;20.466;2023-04-05T01:20:59;98021.13;;;1.62
66180;BMP280;52986;44.028;20.466;2023-04-05T01:23:52;98017.75;;;1.69
66180;BMP280;52986;44.028;20.466;2023-04-05T01:32:45;98020.41;;;1.69
66180;BMP280;52986;44.028;20.466;2023-04-05T01:37:48;98020.06;;;1.70
66180;BMP280;52986;44.028;20.466;2023-04-05T01:40:16;98017.00;;;1.68
66180;BMP280;52986;44.028;20.466;2023-04-05T01:42:43;98015.13;;;1.65
66180;BMP280;52986;44.028;20.466;2023-04-05T01:45:10;98021.16;;;1.69
66180;BMP280;52986;44.028;20.466;2023-04-05T01:47:36;98017.03;;;1.72
66180;BMP280;52986;44.028;20.466;2023-04-05T01:50:01;98012.50;;;1.65
66180;BMP280;52986;44.028;20.466;2023-04-05T01:52:27;98017.75;;;1.58
66180;BMP280;52986;44.028;20.466;2023-04-05T01:54:52;98021.13;;;1.62
66180;BMP280;52986;44.028;20.466;2023-04-05T01:57:17;98027.16;;;1.62
66180;BMP280;52986;44.028;20.466;2023-04-05T01:59:43;98025.28;;;1.59
66180;BMP280;52986;44.028;20.466;2023-04-05T02:02:09;98022.25;;;1.61
66180;BMP280;52986;44.028;20.466;2023-04-05T02:04:34;98016.25;;;1.64
66180;BMP280;52986;44.028;20.466;2023-04-05T02:07:00;98017.38;;;1.67
66180;BMP280;52986;44.028;20.466;2023-04-05T02:09:25;98018.13;;;1.63
66180;BMP280;52986;44.028;20.466;2023-04-05T02:11:51;98018.53;;;1.66
66180;BMP280;52986;44.028;20.466;2023-04-05T02:14:16;98018.13;;;1.63
66180;BMP280;52986;44.028;20.466;2023-04-05T02:16:41;98020.75;;;1.63
66180;BMP280;52986;44.028;20.466;2023-04-05T02:19:07;98021.50;;;1.60
66180;BMP280;52986;44.028;20.466;2023-04-05T02:21:32;98021.47;;;1.57
66180;BMP280;52986;44.028;20.466;2023-04-05T02:23:58;98015.06;;;1.54
66180;BMP280;52986;44.028;20.466;2023-04-05T02:26:23;98020.34;;;1.54
66180;BMP280;52986;44.028;20.466;2023-04-05T02:28:49;98016.56;;;1.55
66180;BMP280;52986;44.028;20.466;2023-04-05T02:31:14;98023.41;;;1.60
66180;BMP280;52986;44.028;20.466;2023-04-05T02:33:40;98027.91;;;1.59
66180;BMP280;52986;44.028;20.466;2023-04-05T02:36:11;98030.91;;;1.54
66180;BMP280;52986;44.028;20.466;2023-04-05T02:38:37;98030.91;;;1.54
66180;BMP280;52986;44.028;20.466;2023-04-05T02:41:03;98027.91;;;1.59
66180;BMP280;52986;44.028;20.466;2023-04-05T02:43:28;98021.50;;;1.60
66180;BMP280;52986;44.028;20.466;2023-04-05T02:45:53;98027.91;;;1.63
66180;BMP280;52986;44.028;20.466;2023-04-05T02:48:19;98022.25;;;1.61
66180;BMP280;52986;44.028;20.466;2023-04-05T02:50:48;98027.94;;;1.67
66180;BMP280;52986;44.028;20.466;2023-04-05T02:53:17;98023.78;;;1.58
66180;BMP280;52986;44.028;20.466;2023-04-05T02:55:51;98028.69;;;1.63
66180;BMP280;52986;44.028;20.466;2023-04-05T02:58:17;98033.59;;;1.69
66180;BMP280;52986;44.028;20.466;2023-04-05T03:00:45;98033.22;;;1.67
66180;BMP280;52986;44.028;20.466;2023-04-05T03:03:22;98035.50;;;1.68
66180;BMP280;52986;44.028;20.466;2023-04-05T03:05:57;98029.47;;;1.71
66180;BMP280;52986;44.028;20.466;2023-04-05T03:08:23;98027.59;;;1.72
66180;BMP280;52986;44.028;20.466;2023-04-05T03:10:52;98020.44;;;1.72
66180;BMP280;52986;44.028;20.466;2023-04-05T03:13:18;98033.63;;;1.72
66180;BMP280;52986;44.028;20.466;2023-04-05T03:15:43;98024.97;;;1.72
66180;BMP280;52986;44.028;20.466;2023-04-05T03:18:09;98028.34;;;1.72
66180;BMP280;52986;44.028;20.466;2023-04-05T03:20:35;98031.00;;;1.76
66180;BMP280;52986;44.028;20.466;2023-04-05T03:23:08;98028.72;;;1.71
66180;BMP280;52986;44.028;20.466;2023-04-05T03:25:34;98034.41;;;1.76
66180;BMP280;52986;44.028;20.466;2023-04-05T03:28:07;98036.69;;;1.78
66180;BMP280;52986;44.028;20.466;2023-04-05T03:30:39;98037.81;;;1.77
66180;BMP280;52986;44.028;20.466;2023-04-05T03:33:04;98038.13;;;1.68
66180;BMP280;52986;44.028;20.466;2023-04-05T03:35:30;98043.78;;;1.67
66180;BMP280;52986;44.028;20.466;2023-04-05T03:37:56;98045.66;;;1.70
66180;BMP280;52986;44.028;20.466;2023-04-05T03:40:22;98039.63;;;1.69
66180;BMP280;52986;44.028;20.466;2023-04-05T03:42:48;98048.28;;;1.62
66180;BMP280;52986;44.028;20.466;2023-04-05T03:45:14;98047.16;;;1.63
66180;BMP280;52986;44.028;20.466;2023-04-05T03:47:39;98047.53;;;1.62
66180;BMP280;52986;44.028;20.466;2023-04-05T03:50:06;98050.50;;;1.57
66180;BMP280;52986;44.028;20.466;2023-04-05T03:52:37;98046.00;;;1.54
66180;BMP280;52986;44.028;20.466;2023-04-05T03:55:03;98053.56;;;1.59
66180;BMP280;52986;44.028;20.466;2023-04-05T03:57:29;98048.25;;;1.55
66180;BMP280;52986;44.028;20.466;2023-04-05T03:59:54;98051.22;;;1.50
66180;BMP280;52986;44.028;20.466;2023-04-05T04:02:20;98047.88;;;1.53
66180;BMP280;52986;44.028;20.466;2023-04-05T04:04:45;98050.13;;;1.55
66180;BMP280;52986;44.028;20.466;2023-04-05T04:07:11;98054.28;;;1.52
66180;BMP280;52986;44.028;20.466;2023-04-05T04:09:37;98048.25;;;1.55
66180;BMP280;52986;44.028;20.466;2023-04-05T04:12:02;98053.53;;;1.55
66180;BMP280;52986;44.028;20.466;2023-04-05T04:14:28;98058.81;;;1.55
66180;BMP280;52986;44.028;20.466;2023-04-05T04:16:53;98057.69;;;1.56
66180;BMP280;52986;44.028;20.466;2023-04-05T04:19:18;98056.53;;;1.57
66180;BMP280;52986;44.028;20.466;2023-04-05T04:21:44;98056.16;;;1.52
66180;BMP280;52986;44.028;20.466;2023-04-05T04:24:17;98059.16;;;1.50
66180;BMP280;52986;44.028;20.466;2023-04-05T04:26:47;98065.63;;;1.60
66180;BMP280;52986;44.028;20.466;2023-04-05T04:29:12;98055.44;;;1.58
66180;BMP280;52986;44.028;20.466;2023-04-05T04:31:41;98058.84;;;1.62
66180;BMP280;52986;44.028;20.466;2023-04-05T04:34:12;98063.38;;;1.62
66180;BMP280;52986;44.028;20.466;2023-04-05T04:36:38;98059.19;;;1.57
66180;BMP280;52986;44.028;20.466;2023-04-05T04:39:07;98064.84;;;1.52
66180;BMP280;52986;44.028;20.466;2023-04-05T04:41:34;98056.56;;;1.61
66180;BMP280;52986;44.028;20.466;2023-04-05T04:44:00;98066.75;;;1.62
66180;BMP280;52986;44.028;20.466;2023-04-05T04:46:32;98063.78;;;1.64
66180;BMP280;52986;44.028;20.466;2023-04-05T04:49:06;98067.16;;;1.65
66180;BMP280;52986;44.028;20.466;2023-04-05T04:51:32;98073.94;;;1.62
66180;BMP280;52986;44.028;20.466;2023-04-05T04:53:58;98067.91;;;1.65
66180;BMP280;52986;44.028;20.466;2023-04-05T04:56:23;98073.22;;;1.76
66180;BMP280;52986;44.028;20.466;2023-04-05T04:58:48;98071.38;;;1.80
66180;BMP280;52986;44.028;20.466;2023-04-05T05:01:14;98078.94;;;1.85
66180;BMP280;52986;44.028;20.466;2023-04-05T05:03:41;98069.53;;;1.91
66180;BMP280;52986;44.028;20.466;2023-04-05T05:06:07;98077.44;;;1.91
66180;BMP280;52986;44.028;20.466;2023-04-05T05:08:32;98075.53;;;1.88
66180;BMP280;52986;44.028;20.466;2023-04-05T05:10:58;98075.94;;;1.90
66180;BMP280;52986;44.028;20.466;2023-04-05T05:13:23;98075.59;;;1.95
66180;BMP280;52986;44.028;20.466;2023-04-05T05:15:49;98081.25;;;1.97
66180;BMP280;52986;44.028;20.466;2023-04-05T05:18:14;98072.59;;;2.00
66180;BMP280;52986;44.028;20.466;2023-04-05T05:20:40;98078.63;;;2.04
66180;BMP280;52986;44.028;20.466;2023-04-05T05:23:06;98084.66;;;2.05
66180;BMP280;52986;44.028;20.466;2023-04-05T05:25:31;98073.69;;;1.99
66180;BMP280;52986;44.028;20.466;2023-04-05T05:27:57;98088.41;;;1.97
66180;BMP280;52986;44.028;20.466;2023-04-05T05:30:22;98092.19;;;1.96
66180;BMP280;52986;44.028;20.466;2023-04-05T05:32:48;98086.94;;;2.03
66180;BMP280;52986;44.028;20.466;2023-04-05T05:35:13;98079.38;;;2.01
66180;BMP280;52986;44.028;20.466;2023-04-05T05:37:38;98098.59;;;1.98
66180;BMP280;52986;44.028;20.466;2023-04-05T05:40:05;98097.91;;;2.08
66180;BMP280;52986;44.028;20.466;2023-04-05T05:42:30;98103.16;;;2.01
66180;BMP280;52986;44.028;20.466;2023-04-05T05:45:03;98102.78;;;2.03
66180;BMP280;52986;44.028;20.466;2023-04-05T05:47:29;98110.28;;;1.97
66180;BMP280;52986;44.028;20.466;2023-04-05T05:49:54;98105.78;;;1.98
66180;BMP280;52986;44.028;20.466;2023-04-05T05:52:20;98105.78;;;2.01
66180;BMP280;52986;44.028;20.466;2023-04-05T05:54:45;98109.59;;;2.07
66180;BMP280;52986;44.028;20.466;2023-04-05T05:57:11;98095.63;;;2.07
66180;BMP280;52986;44.028;20.466;2023-04-05T05:59:37;98105.88;;;2.19
66180;BMP280;52986;44.028;20.466;2023-04-05T06:02:02;98106.63;;;2.20
66180;BMP280;52986;44.028;20.466;2023-04-05T06:04:27;98106.66;;;2.27
66180;BMP280;52986;44.028;20.466;2023-04-05T06:06:53;98103.63;;;2.32
66180;BMP280;52986;44.028;20.466;2023-04-05T06:09:19;98104.41;;;2.46
66180;BMP280;52986;44.028;20.466;2023-04-05T06:11:44;98101.78;;;2.50
66180;BMP280;52986;44.028;20.466;2023-04-05T06:14:09;98104.44;;;2.50
66180;BMP280;52986;44.028;20.466;2023-04-05T06:16:35;98111.22;;;2.55
66180;BMP280;52986;44.028;20.466;2023-04-05T06:19:00;98107.09;;;2.68
66180;BMP280;52986;44.028;20.466;2023-04-05T06:21:26;98102.16;;;2.66
66180;BMP280;52986;44.028;20.466;2023-04-05T06:23:52;98103.31;;;2.72
66180;BMP280;52986;44.028;20.466;2023-04-05T06:26:22;98111.25;;;2.69
66180;BMP280;52986;44.028;20.466;2023-04-05T06:28:51;98105.59;;;2.63
66180;BMP280;52986;44.028;20.466;2023-04-05T06:31:19;98108.97;;;2.71
66180;BMP280;52986;44.028;20.466;2023-04-05T06:33:45;98108.25;;;2.81
66180;BMP280;52986;44.028;20.466;2023-04-05T06:36:10;98113.13;;;2.72
66180;BMP280;52986;44.028;20.466;2023-04-05T06:38:36;98116.94;;;2.74
66180;BMP280;52986;44.028;20.466;2023-04-05T06:41:02;98120.31;;;2.68
66180;BMP280;52986;44.028;20.466;2023-04-05T06:43:27;98128.63;;;2.56
66180;BMP280;52986;44.028;20.466;2023-04-05T06:45:56;98129.72;;;2.51
66180;BMP280;52986;44.028;20.466;2023-04-05T06:48:22;98127.09;;;2.51
66180;BMP280;52986;44.028;20.466;2023-04-05T06:50:56;98133.88;;;2.52
66180;BMP280;52986;44.028;20.466;2023-04-05T06:53:21;98129.41;;;2.74
66180;BMP280;52986;44.028;20.466;2023-04-05T06:55:50;98130.16;;;3.03
66180;BMP280;52986;44.028;20.466;2023-04-05T06:58:15;98134.72;;;3.24
66180;BMP280;52986;44.028;20.466;2023-04-05T07:00:40;98138.47;;;3.44
66180;BMP280;52986;44.028;20.466;2023-04-05T07:03:06;98146.34;;;3.69
66180;BMP280;52986;44.028;20.466;2023-04-05T07:05:31;98148.19;;;3.86
66180;BMP280;52986;44.028;20.466;2023-04-05T07:07:57;98146.63;;;4.07
66180;BMP280;52986;44.028;20.466;2023-04-05T07:10:22;98166.41;;;4.58
66180;BMP280;52986;44.028;20.466;2023-04-05T07:12:47;98159.25;;;5.07
66180;BMP280;52986;44.028;20.466;2023-04-05T07:15:13;98160.09;;;5.41
66180;BMP280;52986;44.028;20.466;2023-04-05T07:17:38;98164.72;;;5.34
66180;BMP280;52986;44.028;20.466;2023-04-05T07:20:04;98162.38;;;5.39
66180;BMP280;52986;44.028;20.466;2023-04-05T07:22:32;98164.78;;;5.26
66180;BMP280;52986;44.028;20.466;2023-04-05T07:24:57;98171.75;;;5.51
66180;BMP280;52986;44.028;20.466;2023-04-05T07:27:23;98167.31;;;5.41
66180;BMP280;52986;44.028;20.466;2023-04-05T07:29:49;98172.31;;;5.32
66180;BMP280;52986;44.028;20.466;2023-04-05T07:32:14;98168.84;;;5.38
66180;BMP280;52986;44.028;20.466;2023-04-05T07:34:39;98167.34;;;4.89
66180;BMP280;52986;44.028;20.466;2023-04-05T07:37:05;98167.47;;;4.75
66180;BMP280;52986;44.028;20.466;2023-04-05T07:39:31;98173.28;;;4.55
66180;BMP280;52986;44.028;20.466;2023-04-05T07:42:03;98165.75;;;4.43
66180;BMP280;52986;44.028;20.466;2023-04-05T07:44:29;98165.41;;;4.37
66180;BMP280;52986;44.028;20.466;2023-04-05T07:46:54;98170.00;;;4.26
66180;BMP280;52986;44.028;20.466;2023-04-05T07:49:24;98171.50;;;4.31
66180;BMP280;52986;44.028;20.466;2023-04-05T07:51:53;98180.88;;;4.42
66180;BMP280;52986;44.028;20.466;2023-04-05T07:54:18;98183.31;;;4.78
66180;BMP280;52986;44.028;20.466;2023-04-05T07:56:44;98193.94;;;4.82
66180;BMP280;52986;44.028;20.466;2023-04-05T07:59:09;98190.16;;;4.79
66180;BMP280;52986;44.028;20.466;2023-04-05T08:01:35;98200.06;;;4.75
66180;BMP280;52986;44.028;20.466;2023-04-05T08:04:00;98200.38;;;4.81
66180;BMP280;52986;44.028;20.466;2023-04-05T08:06:25;98205.66;;;4.84
66180;BMP280;52986;44.028;20.466;2023-04-05T08:08:54;98212.47;;;4.92
66180;BMP280;52986;44.028;20.466;2023-04-05T08:11:19;98208.44;;;5.22
66180;BMP280;52986;44.028;20.466;2023-04-05T08:13:45;98208.22;;;5.47
66180;BMP280;52986;44.028;20.466;2023-04-05T08:16:11;98210.03;;;5.57
66180;BMP280;52986;44.028;20.466;2023-04-05T08:18:37;98204.59;;;5.68
66180;BMP280;52986;44.028;20.466;2023-04-05T08:21:03;98213.38;;;5.65
66180;BMP280;52986;44.028;20.466;2023-04-05T08:23:28;98210.34;;;5.63
66180;BMP280;52986;44.028;20.466;2023-04-05T08:25:54;98213.88;;;5.90
66180;BMP280;52986;44.028;20.466;2023-04-05T08:28:20;98217.00;;;6.15
66180;BMP280;52986;44.028;20.466;2023-04-05T08:30:45;98209.09;;;6.08
66180;BMP280;52986;44.028;20.466;2023-04-05T08:33:11;98211.03;;;6.35
66180;BMP280;52986;44.028;20.466;2023-04-05T08:35:38;98218.44;;;6.78
66180;BMP280;52986;44.028;20.466;2023-04-05T08:38:05;98223.88;;;7.21
66180;BMP280;52986;44.028;20.466;2023-04-05T08:40:41;98231.22;;;7.13
66180;BMP280;52986;44.028;20.466;2023-04-05T08:45:46;98224.66;;;8.04
66180;BMP280;52986;44.028;20.466;2023-04-05T08:48:12;98234.44;;;8.47
66180;BMP280;52986;44.028;20.466;2023-04-05T08:50:38;98220.63;;;8.52
66180;BMP280;52986;44.028;20.466;2023-04-05T08:53:03;98225.59;;;8.14
66180;BMP280;52986;44.028;20.466;2023-04-05T08:55:29;98225.72;;;8.63
66180;BMP280;52986;44.028;20.466;2023-04-05T08:57:55;98217.09;;;8.39
66180;BMP280;52986;44.028;20.466;2023-04-05T09:00:23;98226.94;;;8.58
66180;BMP280;52986;44.028;20.466;2023-04-05T09:02:53;98213.44;;;8.49
66180;BMP280;52986;44.028;20.466;2023-04-05T09:05:22;98226.38;;;8.50
66180;BMP280;52986;44.028;20.466;2023-04-05T09:07:48;98225.78;;;8.59
66180;BMP280;52986;44.028;20.466;2023-04-05T09:10:18;98224.97;;;8.62
66180;BMP280;52986;44.028;20.466;2023-04-05T09:12:44;98221.56;;;8.62
66180;BMP280;52986;44.028;20.466;2023-04-05T09:15:10;98218.59;;;8.40
66180;BMP280;52986;44.028;20.466;2023-04-05T09:17:37;98230.94;;;8.14
66180;BMP280;52986;44.028;20.466;2023-04-05T09:20:03;98223.34;;;8.32
66180;BMP280;52986;44.028;20.466;2023-04-05T09:22:29;98225.88;;;8.56
66180;BMP280;52986;44.028;20.466;2023-04-05T09:24:54;98220.91;;;8.38
66180;BMP280;52986;44.028;20.466;2023-04-05T09:27:20;98235.94;;;8.48
66180;BMP280;52986;44.028;20.466;2023-04-05T09:29:47;98233.03;;;8.59
66180;BMP280;52986;44.028;20.466;2023-04-05T09:32:14;98234.97;;;8.58
66180;BMP280;52986;44.028;20.466;2023-04-05T09:34:41;98239.16;;;8.75
66180;BMP280;52986;44.028;20.466;2023-04-05T09:37:23;98227.53;;;8.49
66180;BMP280;52986;44.028;20.466;2023-04-05T09:39:49;98225.81;;;8.92
66180;BMP280;52986;44.028;20.466;2023-04-05T09:42:17;98226.06;;;8.81
66180;BMP280;52986;44.028;20.466;2023-04-05T09:44:51;98230.75;;;8.41
66180;BMP280;52986;44.028;20.466;2023-04-05T09:47:20;98225.94;;;8.52
66180;BMP280;52986;44.028;20.466;2023-04-05T09:49:46;98226.91;;;8.06
66180;BMP280;52986;44.028;20.466;2023-04-05T09:52:27;98222.53;;;7.76
66180;BMP280;52986;44.028;20.466;2023-04-05T09:54:55;98231.00;;;7.71
66180;BMP280;52986;44.028;20.466;2023-04-05T09:57:25;98225.28;;;7.72
66180;BMP280;52986;44.028;20.466;2023-04-05T09:59:51;98224.84;;;8.13
66180;BMP280;52986;44.028;20.466;2023-04-05T10:02:17;98229.16;;;8.27
66180;BMP280;52986;44.028;20.466;2023-04-05T10:04:46;98230.22;;;8.30
66180;BMP280;52986;44.028;20.466;2023-04-05T10:07:13;98223.59;;;8.18
66180;BMP280;52986;44.028;20.466;2023-04-05T10:09:40;98222.16;;;8.33
66180;BMP280;52986;44.028;20.466;2023-04-05T10:12:07;98227.53;;;7.93
66180;BMP280;52986;44.028;20.466;2023-04-05T10:14:36;98234.25;;;7.82
66180;BMP280;52986;44.028;20.466;2023-04-05T10:19:44;98230.38;;;9.24
66180;BMP280;52986;44.028;20.466;2023-04-05T10:22:15;98230.19;;;9.31
66180;BMP280;52986;44.028;20.466;2023-04-05T10:24:48;98233.50;;;9.22
66180;BMP280;52986;44.028;20.466;2023-04-05T10:30:06;98230.88;;;9.19
66180;BMP280;52986;44.028;20.466;2023-04-05T10:38:24;98225.97;;;9.75
66180;BMP280;52986;44.028;20.466;2023-04-05T10:40:53;98227.38;;;9.80
66180;BMP280;52986;44.028;20.466;2023-04-05T10:43:24;98225.09;;;9.94
66180;BMP280;52986;44.028;20.466;2023-04-05T10:45:52;98218.41;;;9.99
66180;BMP280;52986;44.028;20.466;2023-04-05T10:48:27;98219.06;;;9.78
66180;BMP280;52986;44.028;20.466;2023-04-05T10:50:59;98227.84;;;9.04
66180;BMP280;52986;44.028;20.466;2023-04-05T10:53:25;98224.09;;;9.14
66180;BMP280;52986;44.028;20.466;2023-04-05T10:55:52;98225.53;;;9.19
66180;BMP280;52986;44.028;20.466;2023-04-05T10:58:19;98225.25;;;9.46
66180;BMP280;52986;44.028;20.466;2023-04-05T11:00:47;98226.06;;;9.42
66180;BMP280;52986;44.028;20.466;2023-04-05T11:11:37;98228.72;;;8.48
66180;BMP280;52986;44.028;20.466;2023-04-05T11:14:16;98230.09;;;9.34
66180;BMP280;52986;44.028;20.466;2023-04-05T11:16:46;98232.53;;;9.87
66180;BMP280;52986;44.028;20.466;2023-04-05T11:19:12;98227.78;;;9.65
66180;BMP280;52986;44.028;20.466;2023-04-05T11:21:40;98226.84;;;9.27
66180;BMP280;52986;44.028;20.466;2023-04-05T11:24:06;98232.47;;;9.32
66180;BMP280;52986;44.028;20.466;2023-04-05T11:29:04;98238.94;;;9.77
66180;BMP280;52986;44.028;20.466;2023-04-05T11:31:29;98235.44;;;9.92
66180;BMP280;52986;44.028;20.466;2023-04-05T11:33:57;98234.94;;;9.68
66180;BMP280;52986;44.028;20.466;2023-04-05T11:36:38;98232.22;;;9.56
66180;BMP280;52986;44.028;20.466;2023-04-05T11:42:02;98228.47;;;9.08
66180;BMP280;52986;44.028;20.466;2023-04-05T11:44:51;98231.53;;;8.58
66180;BMP280;52986;44.028;20.466;2023-04-05T11:47:17;98225.41;;;8.05
66180;BMP280;52986;44.028;20.466;2023-04-05T11:49:48;98230.84;;;8.01
66180;BMP280;52986;44.028;20.466;2023-04-05T11:52:19;98227.75;;;7.83
66180;BMP280;52986;44.028;20.466;2023-04-05T11:54:45;98228.56;;;7.80
66180;BMP280;52986;44.028;20.466;2023-04-05T11:57:12;98229.03;;;7.75
66180;BMP280;52986;44.028;20.466;2023-04-05T11:59:38;98233.88;;;8.00
66180;BMP280;52986;44.028;20.466;2023-04-05T12:02:04;98227.88;;;7.96
66180;BMP280;52986;44.028;20.466;2023-04-05T12:04:30;98229.34;;;8.16
66180;BMP280;52986;44.028;20.466;2023-04-05T12:07:09;98228.69;;;7.92
66180;BMP280;52986;44.028;20.466;2023-04-05T12:09:35;98233.19;;;8.15
66180;BMP280;52986;44.028;20.466;2023-04-05T12:12:01;98236.84;;;8.41
66180;BMP280;52986;44.028;20.466;2023-04-05T12:14:26;98238.81;;;8.90
66180;BMP280;52986;44.028;20.466;2023-04-05T12:16:52;98237.34;;;9.21
66180;BMP280;52986;44.028;20.466;2023-04-05T12:19:17;98237.09;;;8.99
66180;BMP280;52986;44.028;20.466;2023-04-05T12:21:43;98239.06;;;8.63
66180;BMP280;52986;44.028;20.466;2023-04-05T12:24:08;98237.22;;;8.23
66180;BMP280;52986;44.028;20.466;2023-04-05T12:26:34;98239.88;;;8.43
66180;BMP280;52986;44.028;20.466;2023-04-05T12:29:02;98233.16;;;8.35
66180;BMP280;52986;44.028;20.466;2023-04-05T12:31:41;98234.53;;;8.43
66180;BMP280;52986;44.028;20.466;2023-04-05T12:34:07;98238.59;;;8.84
66180;BMP280;52986;44.028;20.466;2023-04-05T12:36:36;98225.22;;;8.84
66180;BMP280;52986;44.028;20.466;2023-04-05T12:39:07;98229.81;;;9.16
66180;BMP280;52986;44.028;20.466;2023-04-05T12:41:35;98235.84;;;9.33
66180;BMP280;52986;44.028;20.466;2023-04-05T12:46:40;98230.16;;;9.47
66180;BMP280;52986;44.028;20.466;2023-04-05T12:49:15;98237.84;;;9.74
66180;BMP280;52986;44.028;20.466;2023-04-05T12:51:45;98236.34;;;9.73
66180;BMP280;52986;44.028;20.466;2023-04-05T12:54:19;98232.94;;;9.72
66180;BMP280;52986;44.028;20.466;2023-04-05T12:56:45;98227.91;;;9.87
66180;BMP280;52986;44.028;20.466;2023-04-05T12:59:13;98237.53;;;9.72
66180;BMP280;52986;44.028;20.466;2023-04-05T13:01:39;98233.22;;;10.16
66180;BMP280;52986;44.028;20.466;2023-04-05T13:04:05;98226.66;;;9.92
66180;BMP280;52986;44.028;20.466;2023-04-05T13:06:30;98224.75;;;9.34
66180;BMP280;52986;44.028;20.466;2023-04-05T13:08:56;98230.94;;;9.31
66180;BMP280;52986;44.028;20.466;2023-04-05T13:11:22;98231.06;;;9.11
66180;BMP280;52986;44.028;20.466;2023-04-05T13:13:47;98231.63;;;9.19
66180;BMP280;52986;44.028;20.466;2023-04-05T13:16:13;98221.81;;;9.00
66180;BMP280;52986;44.028;20.466;2023-04-05T13:18:38;98224.06;;;8.85
66180;BMP280;52986;44.028;20.466;2023-04-05T13:21:04;98221.06;;;8.67
66180;BMP280;52986;44.028;20.466;2023-04-05T13:23:36;98223.81;;;8.63
66180;BMP280;52986;44.028;20.466;2023-04-05T13:26:02;98218.72;;;8.69
66180;BMP280;52986;44.028;20.466;2023-04-05T13:28:28;98217.53;;;8.54
66180;BMP280;52986;44.028;20.466;2023-04-05T13:30:54;98219.88;;;8.68
66180;BMP280;52986;44.028;20.466;2023-04-05T13:33:19;98221.94;;;8.60
66180;BMP280;52986;44.028;20.466;2023-04-05T13:35:46;98214.69;;;8.44
66180;BMP280;52986;44.028;20.466;2023-04-05T13:38:11;98214.03;;;8.20
66180;BMP280;52986;44.028;20.466;2023-04-05T13:40:37;98210.09;;;8.09
66180;BMP280;52986;44.028;20.466;2023-04-05T13:43:02;98214.53;;;7.96
66180;BMP280;52986;44.028;20.466;2023-04-05T13:45:28;98217.56;;;7.78
66180;BMP280;52986;44.028;20.466;2023-04-05T13:47:53;98210.78;;;7.73
66180;BMP280;52986;44.028;20.466;2023-04-05T13:50:19;98214.94;;;7.74
66180;BMP280;52986;44.028;20.466;2023-04-05T13:52:44;98226.94;;;7.43
66180;BMP280;52986;44.028;20.466;2023-04-05T13:55:10;98215.09;;;7.87
66180;BMP280;52986;44.028;20.466;2023-04-05T13:57:35;98227.13;;;7.95
66180;BMP280;52986;44.028;20.466;2023-04-05T14:00:00;98208.84;;;7.93
66180;BMP280;52986;44.028;20.466;2023-04-05T14:02:26;98214.03;;;7.81
66180;BMP280;52986;44.028;20.466;2023-04-05T14:04:52;98206.59;;;7.92
66180;BMP280;52986;44.028;20.466;2023-04-05T14:07:22;98208.38;;;7.99
66180;BMP280;52986;44.028;20.466;2023-04-05T14:09:47;98210.88;;;8.06
66180;BMP280;52986;44.028;20.466;2023-04-05T14:12:12;98202.88;;;8.06
66180;BMP280;52986;44.028;20.466;2023-04-05T14:14:38;98217.56;;;7.98
66180;BMP280;52986;44.028;20.466;2023-04-05T14:17:03;98210.56;;;8.04
66180;BMP280;52986;44.028;20.466;2023-04-05T14:19:29;98205.31;;;8.00
66180;BMP280;52986;44.028;20.466;2023-04-05T14:21:55;98212.25;;;8.14
66180;BMP280;52986;44.028;20.466;2023-04-05T14:24:21;98211.25;;;8.08
66180;BMP280;52986;44.028;20.466;2023-04-05T14:26:47;98216.94;;;8.10
66180;BMP280;52986;44.028;20.466;2023-04-05T14:29:17;98211.78;;;8.19
66180;BMP280;52986;44.028;20.466;2023-04-05T14:31:43;98215.56;;;8.21
66180;BMP280;52986;44.028;20.466;2023-04-05T14:34:09;98211.63;;;8.26
66180;BMP280;52986;44.028;20.466;2023-04-05T14:36:35;98198.28;;;8.26
66180;BMP280;52986;44.028;20.466;2023-04-05T14:39:00;98207.88;;;8.04
66180;BMP280;52986;44.028;20.466;2023-04-05T14:41:26;98206.72;;;8.05
66180;BMP280;52986;44.028;20.466;2023-04-05T14:43:52;98201.59;;;8.14
66180;BMP280;52986;44.028;20.466;2023-04-05T14:46:18;98200.22;;;8.06
66180;BMP280;52986;44.028;20.466;2023-04-05T14:48:43;98198.09;;;8.01
66180;BMP280;52986;44.028;20.466;2023-04-05T14:51:09;98204.28;;;7.94